Time;durP1;ratioP1;P1;durP2;ratioP2;P2;SDS_P1;SDS_P2;PMS_P1;PMS_P2;Temp;Humidity;BMP_temperature;BMP_pressure;BME280_temperature;BME280_humidity;BME280_pressure;Samples;Min_cycle;Max_cycle;Signal;HPM_P1;HPM_P2
2022/07/07 00:00:57;;;;;;;4.80;1.20;;;;;;;15.16;63.10;100589.77;106371;1273;22489;-73
2022/07/07 00:03:23;;;;;;;5.70;1.50;;;;;;;15.15;62.94;100591.04;107521;1271;22934;-74
2022/07/07 00:05:50;;;;;;;1.90;1.00;;;;;;;15.14;63.13;100596.05;107821;1272;25373;-73
2022/07/07 00:08:17;;;;;;;1.50;1.10;;;;;;;15.12;63.18;100590.77;107584;1271;25254;-73
2022/07/07 00:10:43;;;;;;;1.90;1.30;;;;;;;15.11;63.07;100592.73;108059;1271;23948;-72
2022/07/07 00:13:09;;;;;;;3.40;1.20;;;;;;;15.12;63.07;100590.41;107730;1271;22764;-73
2022/07/07 00:20:08;;;;;;;1.80;1.10;;;;;;;15.12;63.02;100586.14;106352;1273;25397;-73
2022/07/07 00:23:42;;;;;;;1.30;0.90;;;;;;;15.09;63.11;100581.05;106505;1279;25270;-73
2022/07/07 00:26:09;;;;;;;2.30;1.10;;;;;;;15.06;63.17;100580.63;105884;1279;22667;-75
2022/07/07 00:28:39;;;;;;;2.80;1.30;;;;;;;15.07;63.19;100578.30;105821;1279;22722;-74
2022/07/07 00:31:05;;;;;;;2.80;1.20;;;;;;;15.06;63.08;100582.04;105701;1279;24429;-77
2022/07/07 00:33:56;;;;;;;1.70;0.80;;;;;;;15.05;63.01;100581.72;105690;1278;23451;-75
2022/07/07 00:36:28;;;;;;;1.70;0.80;;;;;;;15.04;63.08;100586.69;105595;1279;22548;-75
2022/07/07 00:38:54;;;;;;;2.00;1.10;;;;;;;15.05;63.10;100582.06;105557;1278;22747;-72
2022/07/07 00:41:21;;;;;;;3.30;0.90;;;;;;;15.04;63.03;100582.95;106039;1271;25321;-74
2022/07/07 00:43:47;;;;;;;8.00;1.40;;;;;;;14.98;62.78;100580.45;106120;1273;22647;-72
2022/07/07 00:46:14;;;;;;;2.70;1.10;;;;;;;15.02;62.98;100586.56;106011;1274;22991;-73
2022/07/07 00:48:42;;;;;;;1.10;0.90;;;;;;;15.06;63.03;100589.66;106049;1273;24091;-75
2022/07/07 00:51:34;;;;;;;3.10;1.00;;;;;;;15.04;62.72;100589.52;106140;1274;24276;-75
2022/07/07 00:54:00;;;;;;;1.90;0.90;;;;;;;15.02;63.06;100586.38;106069;1273;24313;-76
2022/07/07 00:56:27;;;;;;;2.40;0.80;;;;;;;15.06;63.01;100588.59;106111;1273;25485;-75
2022/07/07 00:58:53;;;;;;;1.20;0.80;;;;;;;15.06;62.82;100583.46;106064;1273;25648;-75
2022/07/07 01:01:19;;;;;;;3.30;0.80;;;;;;;15.03;62.74;100583.73;106051;1273;25232;-72
2022/07/07 01:03:45;;;;;;;1.70;0.80;;;;;;;15.02;62.64;100586.58;105985;1271;22720;-72
2022/07/07 01:06:13;;;;;;;1.80;0.70;;;;;;;14.94;62.60;100588.18;105908;1273;25420;-73
2022/07/07 01:08:40;;;;;;;3.10;1.00;;;;;;;14.89;63.00;100589.36;106297;1273;25573;-73
2022/07/07 01:11:06;;;;;;;1.70;0.80;;;;;;;14.89;63.26;100587.77;105913;1277;22534;-74
2022/07/07 01:13:32;;;;;;;1.50;1.00;;;;;;;14.87;63.17;100589.95;105570;1280;24426;-71
2022/07/07 01:15:59;;;;;;;2.70;0.90;;;;;;;14.86;63.11;100587.11;105597;1278;22904;-72
2022/07/07 01:18:25;;;;;;;0.90;0.80;;;;;;;14.83;63.20;100586.50;105003;1285;23993;-70
2022/07/07 01:20:51;;;;;;;1.80;1.10;;;;;;;14.82;63.29;100590.05;105791;1285;22978;-70
2022/07/07 01:23:18;;;;;;;1.00;0.80;;;;;;;14.83;63.25;100587.71;105573;1285;22675;-73
2022/07/07 01:25:44;;;;;;;5.20;1.10;;;;;;;14.85;63.28;100585.38;105165;1284;22595;-72
2022/07/07 01:28:11;;;;;;;4.40;1.00;;;;;;;14.85;63.30;100588.71;104704;1287;22690;-73
2022/07/07 01:30:37;;;;;;;4.40;0.90;;;;;;;14.84;63.38;100589.66;104919;1284;22587;-71
2022/07/07 01:33:04;;;;;;;1.70;1.00;;;;;;;14.84;63.34;100586.98;104905;1285;22591;-73
2022/07/07 01:35:30;;;;;;;2.90;0.90;;;;;;;14.81;63.35;100589.02;104994;1285;22669;-75
2022/07/07 01:37:56;;;;;;;2.40;0.70;;;;;;;14.82;63.40;100589.34;105347;1281;22771;-76
2022/07/07 01:40:23;;;;;;;1.60;1.20;;;;;;;14.83;63.31;100593.05;105143;1281;24476;-77
2022/07/07 01:42:49;;;;;;;1.40;0.90;;;;;;;14.82;63.41;100591.29;105621;1281;24101;-75
2022/07/07 01:45:15;;;;;;;1.90;1.00;;;;;;;14.78;63.20;100586.59;105521;1281;24453;-74
2022/07/07 01:47:42;;;;;;;2.70;1.10;;;;;;;14.78;63.38;100587.29;106035;1274;22550;-72
2022/07/07 01:50:09;;;;;;;3.60;0.90;;;;;;;14.75;63.40;100588.23;106102;1274;22541;-74
2022/07/07 01:52:36;;;;;;;2.10;0.90;;;;;;;14.74;63.28;100592.34;106007;1273;25171;-74
2022/07/07 01:55:03;;;;;;;2.30;1.00;;;;;;;14.74;63.33;100587.71;106037;1273;24293;-73
2022/07/07 01:57:29;;;;;;;1.90;1.20;;;;;;;14.76;63.39;100584.85;105949;1273;22559;-79
2022/07/07 01:59:56;;;;;;;1.40;0.70;;;;;;;14.77;63.28;100584.98;106030;1274;23852;-77
2022/07/07 02:02:22;;;;;;;1.60;0.80;;;;;;;14.77;63.32;100588.91;106005;1273;24432;-73
2022/07/07 02:04:49;;;;;;;0.90;0.70;;;;;;;14.77;63.53;100583.77;105863;1273;26517;-71
2022/07/07 02:07:15;;;;;;;1.20;1.00;;;;;;;14.80;63.31;100588.33;105647;1275;26561;-74
2022/07/07 02:09:41;;;;;;;0.90;0.90;;;;;;;14.82;63.39;100585.63;105951;1274;22551;-75
2022/07/07 02:12:08;;;;;;;1.40;0.90;;;;;;;14.82;63.34;100586.50;105691;1276;25359;-74
2022/07/07 02:14:34;;;;;;;3.00;1.40;;;;;;;14.80;63.40;100586.20;106059;1273;22585;-73
2022/07/07 02:17:01;;;;;;;2.70;0.70;;;;;;;14.79;63.57;100586.92;105916;1278;22621;-69
2022/07/07 02:19:27;;;;;;;1.30;0.90;;;;;;;14.77;63.72;100589.44;105870;1273;22691;-70
2022/07/07 02:21:53;;;;;;;4.50;1.10;;;;;;;14.73;63.91;100590.05;105824;1273;22610;-70
2022/07/07 02:24:20;;;;;;;2.10;0.90;;;;;;;14.69;63.69;100589.78;105771;1273;23942;-70
2022/07/07 02:26:46;;;;;;;2.30;1.30;;;;;;;14.63;63.98;100587.46;105680;1274;25275;-72
2022/07/07 02:29:12;;;;;;;2.50;1.00;;;;;;;14.64;63.97;100588.14;105382;1279;24462;-71
2022/07/07 02:31:38;;;;;;;1.40;0.90;;;;;;;14.65;63.97;100586.70;105225;1281;24238;-71
2022/07/07 02:34:05;;;;;;;2.90;1.20;;;;;;;14.64;63.96;100585.65;105292;1281;24245;-74
2022/07/07 02:36:32;;;;;;;1.40;1.30;;;;;;;14.62;64.03;100582.34;105492;1280;22557;-72
2022/07/07 02:38:58;;;;;;;3.50;1.10;;;;;;;14.65;64.14;100585.64;105395;1280;25395;-69
2022/07/07 02:41:25;;;;;;;1.50;1.10;;;;;;;14.67;64.21;100586.81;105441;1281;22715;-71
2022/07/07 02:43:51;;;;;;;2.20;0.90;;;;;;;14.69;64.22;100588.71;105399;1279;22582;-70
2022/07/07 02:46:18;;;;;;;3.20;0.90;;;;;;;14.73;64.19;100589.70;105323;1281;22556;-72
2022/07/07 02:48:44;;;;;;;2.80;1.00;;;;;;;14.72;63.98;100591.50;105743;1276;25261;-71
2022/07/07 02:51:11;;;;;;;0.90;0.70;;;;;;;14.71;64.08;100591.86;105626;1277;24322;-70
2022/07/07 02:53:38;;;;;;;1.30;0.70;;;;;;;14.74;64.00;100589.32;105249;1281;25583;-72
2022/07/07 02:56:05;;;;;;;3.20;0.90;;;;;;;14.78;63.86;100587.29;105239;1281;26586;-72
2022/07/07 02:58:32;;;;;;;2.50;0.80;;;;;;;14.78;63.82;100588.36;105001;1281;24691;-76
2022/07/07 03:00:58;;;;;;;1.00;0.80;;;;;;;14.78;63.74;100588.54;105234;1281;24545;-74
2022/07/07 03:03:24;;;;;;;3.50;1.00;;;;;;;14.72;63.67;100589.91;105439;1281;22583;-75
2022/07/07 03:05:51;;;;;;;1.40;0.80;;;;;;;14.71;63.94;100589.91;105546;1281;26548;-75
2022/07/07 03:08:18;;;;;;;1.90;1.10;;;;;;;14.73;64.09;100589.68;105240;1284;22572;-74
2022/07/07 03:10:45;;;;;;;1.80;1.00;;;;;;;14.71;64.00;100587.60;105499;1281;22814;-74
2022/07/07 03:13:11;;;;;;;2.50;0.80;;;;;;;14.72;64.11;100584.05;105955;1274;22756;-74
2022/07/07 03:15:37;;;;;;;1.70;1.00;;;;;;;14.73;64.08;100588.81;106009;1273;22553;-77
2022/07/07 03:18:03;;;;;;;3.10;1.30;;;;;;;14.75;64.12;100588.42;106138;1275;25235;-74
2022/07/07 03:20:30;;;;;;;1.80;1.00;;;;;;;14.82;64.34;100588.64;106022;1274;25290;-76
2022/07/07 03:22:56;;;;;;;1.50;0.90;;;;;;;14.90;64.16;100587.56;106321;1274;22541;-75
2022/07/07 03:25:22;;;;;;;2.20;1.10;;;;;;;14.91;64.13;100584.90;106130;1274;22556;-75
2022/07/07 03:27:49;;;;;;;1.20;1.00;;;;;;;14.94;64.13;100584.10;106139;1273;22630;-73
2022/07/07 03:30:19;;;;;;;1.70;1.10;;;;;;;14.98;64.03;100585.60;106285;1273;26506;-78
2022/07/07 03:32:45;;;;;;;2.00;1.20;;;;;;;14.99;64.17;100583.63;105848;1274;24314;-73
2022/07/07 03:35:12;;;;;;;2.90;1.00;;;;;;;14.99;64.07;100587.34;105921;1274;22733;-73
2022/07/07 03:37:38;;;;;;;3.20;1.40;;;;;;;14.92;63.96;100581.13;105969;1274;22625;-71
2022/07/07 03:40:06;;;;;;;4.20;1.60;;;;;;;14.94;64.27;100580.73;105985;1274;22707;-72
2022/07/07 03:42:32;;;;;;;5.30;1.40;;;;;;;14.98;64.40;100581.52;106059;1277;25308;-74
2022/07/07 03:45:05;;;;;;;2.40;1.50;;;;;;;14.96;64.15;100580.86;104918;1285;22633;-73
2022/07/07 03:47:32;;;;;;;3.00;1.10;;;;;;;14.98;64.17;100584.17;105199;1285;22735;-72
2022/07/07 03:50:00;;;;;;;2.70;1.10;;;;;;;15.05;64.32;100581.17;105171;1284;25280;-71
2022/07/07 03:52:26;;;;;;;3.20;1.40;;;;;;;15.10;64.18;100580.33;105082;1287;24408;-73
2022/07/07 03:54:52;;;;;;;3.20;1.10;;;;;;;15.14;64.08;100579.36;105142;1284;25298;-73
2022/07/07 03:57:19;;;;;;;1.60;1.20;;;;;;;15.18;64.00;100575.36;105178;1284;22590;-77
2022/07/07 03:59:45;;;;;;;3.10;1.50;;;;;;;15.18;63.90;100565.77;105207;1284;22711;-74
2022/07/07 04:02:11;;;;;;;4.70;1.20;;;;;;;15.26;63.79;100576.75;105530;1281;25302;-72
2022/07/07 04:04:38;;;;;;;2.30;1.30;;;;;;;15.23;63.84;100576.27;106046;1273;24879;-72
2022/07/07 04:07:04;;;;;;;5.10;1.70;;;;;;;15.27;63.91;100578.50;106141;1274;25323;-73
2022/07/07 04:09:31;;;;;;;4.10;1.70;;;;;;;15.31;64.00;100579.98;105984;1274;24363;-77
2022/07/07 04:12:37;;;;;;;1.70;1.10;;;;;;;15.31;63.93;100581.21;106147;1277;24240;-74
2022/07/07 04:15:34;;;;;;;1.30;1.20;;;;;;;15.37;63.99;100581.79;106367;1273;25332;-75
2022/07/07 04:18:02;;;;;;;1.80;1.30;;;;;;;15.38;63.81;100578.40;106130;1274;24736;-76
2022/07/07 04:20:32;;;;;;;1.30;1.10;;;;;;;15.32;63.85;100569.68;105476;1278;270212;-74
2022/07/07 04:22:58;;;;;;;4.50;1.70;;;;;;;15.34;63.95;100572.09;105832;1281;25545;-75
2022/07/07 04:25:32;;;;;;;4.10;1.30;;;;;;;15.35;64.00;100571.20;105851;1278;24254;-79
2022/07/07 04:27:58;;;;;;;1.40;1.30;;;;;;;15.43;64.03;100570.10;105826;1277;22565;-75
2022/07/07 04:30:24;;;;;;;4.00;1.30;;;;;;;15.47;63.84;100568.58;105123;1281;24460;-79
2022/07/07 04:32:51;;;;;;;2.50;1.20;;;;;;;15.49;63.70;100566.39;105628;1278;22659;-74
2022/07/07 04:35:17;;;;;;;3.60;1.50;;;;;;;15.54;63.70;100567.33;105544;1279;22881;-74
2022/07/07 04:37:43;;;;;;;6.30;1.50;;;;;;;15.57;63.50;100563.51;105313;1281;22653;-73
2022/07/07 04:40:10;;;;;;;5.00;1.40;;;;;;;15.59;63.54;100567.02;105973;1274;22560;-75
2022/07/07 04:42:36;;;;;;;2.30;1.60;;;;;;;15.63;63.54;100567.27;105921;1274;22520;-75
2022/07/07 04:45:03;;;;;;;3.00;1.30;;;;;;;15.67;63.45;100564.31;106000;1275;24289;-76
2022/07/07 04:47:29;;;;;;;4.80;1.50;;;;;;;15.68;63.17;100565.20;106082;1271;24288;-75
2022/07/07 04:49:55;;;;;;;3.40;1.30;;;;;;;15.66;63.25;100560.09;106167;1271;24428;-78
2022/07/07 04:52:21;;;;;;;2.00;1.40;;;;;;;15.66;62.97;100562.21;105692;1277;24179;-75
2022/07/07 04:54:47;;;;;;;3.30;1.40;;;;;;;15.67;63.11;100562.17;105836;1277;24730;-80
2022/07/07 04:57:19;;;;;;;2.80;1.40;;;;;;;15.72;63.35;100561.85;105806;1277;24251;-74
2022/07/07 04:59:48;;;;;;;3.10;1.20;;;;;;;15.81;63.13;100561.10;105837;1277;22941;-82
2022/07/07 05:02:14;;;;;;;3.40;1.40;;;;;;;15.88;63.10;100561.27;105892;1277;25393;-74
2022/07/07 05:04:41;;;;;;;2.90;1.30;;;;;;;15.94;63.03;100561.45;105775;1277;25381;-75
2022/07/07 05:07:07;;;;;;;1.80;0.90;;;;;;;15.97;62.69;100562.77;105768;1277;22563;-79
2022/07/07 05:09:34;;;;;;;4.60;1.30;;;;;;;16.01;62.36;100562.34;105791;1277;23388;-75
2022/07/07 05:12:02;;;;;;;5.50;0.90;;;;;;;16.03;61.93;100560.51;106205;1271;22693;-77
2022/07/07 05:14:28;;;;;;;1.60;1.20;;;;;;;16.05;61.92;100557.61;106036;1274;22550;-77
2022/07/07 05:16:55;;;;;;;4.50;1.20;;;;;;;16.08;61.71;100561.61;106432;1271;24291;-76
2022/07/07 05:19:22;;;;;;;2.00;1.30;;;;;;;16.08;61.67;100558.40;106491;1271;22560;-78
2022/07/07 05:21:49;;;;;;;4.60;0.90;;;;;;;16.10;61.76;100563.84;106187;1271;25499;-76
2022/07/07 05:24:16;;;;;;;2.40;0.90;;;;;;;16.12;61.67;100558.66;106262;1271;22778;-74
2022/07/07 05:26:42;;;;;;;2.00;1.20;;;;;;;16.18;61.68;100559.73;106082;1271;25497;-75
2022/07/07 05:29:08;;;;;;;3.70;1.60;;;;;;;16.26;61.47;100561.80;106039;1274;22598;-75
2022/07/07 05:31:34;;;;;;;2.10;1.40;;;;;;;16.35;61.65;100562.75;105845;1277;22661;-76
2022/07/07 05:34:01;;;;;;;5.70;1.40;;;;;;;16.41;61.55;100560.27;105897;1277;25486;-75
2022/07/07 05:36:27;;;;;;;5.00;3.00;;;;;;;16.40;61.51;100554.42;105703;1277;22701;-76
2022/07/07 05:38:53;;;;;;;2.30;1.30;;;;;;;16.50;61.68;100555.22;105714;1278;22647;-75
2022/07/07 05:41:19;;;;;;;1.30;1.00;;;;;;;16.53;61.15;100554.38;105719;1278;22711;-75
2022/07/07 05:43:45;;;;;;;4.40;1.50;;;;;;;16.55;60.83;100557.53;105927;1277;22610;-78
2022/07/07 05:46:12;;;;;;;2.80;1.20;;;;;;;16.53;60.64;100555.64;105449;1281;22901;-75
2022/07/07 05:48:39;;;;;;;4.50;2.10;;;;;;;16.61;60.97;100552.90;105532;1280;22559;-74
2022/07/07 05:51:05;;;;;;;1.70;1.30;;;;;;;16.72;60.77;100554.86;105739;1278;26540;-75
2022/07/07 05:53:31;;;;;;;2.00;1.30;;;;;;;16.79;60.87;100554.08;105705;1277;24298;-75
2022/07/07 05:55:57;;;;;;;3.20;1.50;;;;;;;16.90;60.87;100555.35;105943;1277;23204;-74
2022/07/07 05:58:25;;;;;;;2.00;1.40;;;;;;;16.98;60.42;100554.55;105785;1278;25545;-75
2022/07/07 06:00:51;;;;;;;4.40;1.30;;;;;;;17.03;59.94;100560.27;105815;1279;22844;-73
2022/07/07 06:03:17;;;;;;;1.50;0.90;;;;;;;17.04;59.42;100553.80;105690;1278;25400;-74
2022/07/07 06:05:44;;;;;;;2.30;1.20;;;;;;;17.03;59.31;100558.11;106225;1274;25377;-73
2022/07/07 06:08:10;;;;;;;2.10;1.10;;;;;;;17.04;59.29;100560.57;106503;1273;22555;-73
2022/07/07 06:10:37;;;;;;;4.30;1.20;;;;;;;17.08;59.00;100561.19;106678;1274;23057;-73
2022/07/07 06:13:03;;;;;;;3.50;1.20;;;;;;;17.12;58.67;100563.90;107060;1273;22619;-74
2022/07/07 06:15:35;;;;;;;2.80;1.20;;;;;;;17.16;58.21;100560.91;106694;1273;22496;-73
2022/07/07 06:18:03;;;;;;;1.60;0.90;;;;;;;17.15;57.96;100556.52;106584;1273;24173;-75
2022/07/07 06:20:34;;;;;;;2.50;1.30;;;;;;;17.15;58.22;100554.00;106750;1273;22652;-75
2022/07/07 06:23:01;;;;;;;2.80;1.40;;;;;;;17.28;58.79;100560.35;106707;1273;23019;-74
2022/07/07 06:25:27;;;;;;;2.40;1.40;;;;;;;17.41;58.50;100561.68;106471;1273;22558;-76
2022/07/07 06:27:54;;;;;;;2.00;1.00;;;;;;;17.51;58.00;100560.79;106284;1272;22551;-73
2022/07/07 06:30:21;;;;;;;3.50;1.10;;;;;;;17.59;57.85;100560.52;106165;1272;22730;-76
2022/07/07 06:32:47;;;;;;;3.30;1.40;;;;;;;17.68;57.71;100560.91;106054;1272;25484;-75
2022/07/07 06:35:14;;;;;;;1.10;1.00;;;;;;;17.76;57.20;100560.98;106177;1273;22629;-76
2022/07/07 06:37:41;;;;;;;4.00;1.20;;;;;;;17.77;56.97;100562.19;106026;1274;22629;-79
2022/07/07 06:40:08;;;;;;;2.20;1.10;;;;;;;17.83;56.87;100555.57;106157;1271;24316;-76
2022/07/07 06:42:34;;;;;;;2.80;1.10;;;;;;;17.91;56.44;100555.64;106249;1271;25265;-77
2022/07/07 06:45:04;;;;;;;1.70;1.20;;;;;;;17.95;56.17;100556.39;105974;1274;22619;-77
2022/07/07 06:47:30;;;;;;;4.80;1.30;;;;;;;17.99;55.91;100553.02;105935;1273;25506;-75
2022/07/07 06:49:57;;;;;;;1.60;1.10;;;;;;;18.01;55.97;100554.01;106001;1274;24253;-86
2022/07/07 06:52:23;;;;;;;2.90;1.00;;;;;;;18.07;55.81;100553.61;106210;1273;25625;-77
2022/07/07 06:54:49;;;;;;;3.30;1.20;;;;;;;18.06;55.58;100550.42;106230;1271;24772;-78
2022/07/07 06:57:16;;;;;;;4.90;1.30;;;;;;;18.13;55.42;100554.85;106229;1272;25338;-75
2022/07/07 06:59:42;;;;;;;3.10;1.10;;;;;;;18.20;55.69;100556.37;106010;1274;25388;-76
2022/07/07 07:02:08;;;;;;;3.70;1.10;;;;;;;18.22;55.18;100555.57;106004;1273;26584;-74
2022/07/07 07:04:34;;;;;;;1.30;0.60;;;;;;;18.28;54.63;100557.64;106097;1273;23898;-76
2022/07/07 07:07:01;;;;;;;2.00;0.70;;;;;;;18.31;54.12;100559.67;105998;1274;23287;-75
2022/07/07 07:09:28;;;;;;;3.80;0.90;;;;;;;18.36;53.97;100556.84;105992;1275;24327;-78
2022/07/07 07:11:54;;;;;;;1.00;0.70;;;;;;;18.35;53.77;100554.55;105970;1273;24234;-76
2022/07/07 07:14:25;;;;;;;3.20;1.00;;;;;;;18.34;53.91;100549.21;106151;1273;22547;-75
2022/07/07 07:16:51;;;;;;;1.80;0.80;;;;;;;18.40;53.74;100542.74;106300;1273;25390;-78
2022/07/07 07:19:17;;;;;;;1.30;0.70;;;;;;;18.46;53.37;100538.42;106217;1273;25285;-76
2022/07/07 07:21:44;;;;;;;1.70;1.00;;;;;;;18.45;53.28;100537.73;105581;1279;23941;-77
2022/07/07 07:24:11;;;;;;;2.00;1.20;;;;;;;18.46;53.44;100541.27;105806;1277;22748;-80
2022/07/07 07:26:39;;;;;;;2.60;0.90;;;;;;;18.47;53.29;100540.52;105633;1280;24245;-77
2022/07/07 07:29:12;;;;;;;2.10;1.00;;;;;;;18.55;53.65;100540.02;105879;1278;23569;-76
2022/07/07 07:31:38;;;;;;;1.60;1.00;;;;;;;18.70;53.76;100536.05;105844;1277;24107;-75
2022/07/07 07:34:05;;;;;;;3.40;1.10;;;;;;;18.85;53.62;100534.38;105962;1277;22704;-75
2022/07/07 07:36:31;;;;;;;1.40;0.80;;;;;;;18.90;53.16;100528.99;105872;1278;25609;-75
2022/07/07 07:38:58;;;;;;;2.00;1.00;;;;;;;18.92;52.99;100533.38;105790;1277;22768;-74
2022/07/07 07:41:25;;;;;;;3.70;0.90;;;;;;;18.91;52.66;100529.16;106143;1273;22792;-77
2022/07/07 07:43:51;;;;;;;3.50;1.00;;;;;;;18.90;52.47;100531.46;106094;1274;25405;-76
2022/07/07 07:46:19;;;;;;;5.30;1.10;;;;;;;18.91;52.03;100531.99;106202;1271;25389;-73
2022/07/07 07:48:46;;;;;;;4.90;0.90;;;;;;;18.84;51.78;100534.08;106437;1273;25361;-75
2022/07/07 07:51:12;;;;;;;1.60;1.00;;;;;;;18.75;51.74;100533.73;106362;1271;24270;-77
2022/07/07 07:53:38;;;;;;;1.90;0.70;;;;;;;18.61;52.25;100529.80;106254;1271;22644;-76
2022/07/07 07:56:05;;;;;;;3.10;0.90;;;;;;;18.65;52.30;100537.31;106117;1274;22578;-75
2022/07/07 07:58:31;;;;;;;2.50;0.90;;;;;;;18.65;52.16;100535.70;106126;1271;22705;-78
2022/07/07 08:00:58;;;;;;;11.90;1.50;;;;;;;18.65;51.90;100531.45;106325;1271;22570;-76
2022/07/07 08:03:24;;;;;;;0.90;0.70;;;;;;;18.70;52.13;100535.33;106518;1271;22549;-76
2022/07/07 08:05:51;;;;;;;4.80;1.10;;;;;;;18.79;51.87;100532.10;106329;1274;22532;-80
2022/07/07 08:08:17;;;;;;;1.80;0.50;;;;;;;18.91;52.14;100525.02;106217;1274;22547;-76
2022/07/07 08:10:43;;;;;;;1.10;0.70;;;;;;;19.04;51.61;100531.78;106469;1271;25340;-75
2022/07/07 08:13:10;;;;;;;2.80;0.90;;;;;;;19.11;50.67;100527.98;106615;1271;25643;-78
2022/07/07 08:15:36;;;;;;;2.60;0.60;;;;;;;19.10;50.42;100527.14;106606;1271;22547;-75
2022/07/07 08:18:03;;;;;;;2.00;0.70;;;;;;;19.15;50.14;100533.67;106213;1274;22897;-75
2022/07/07 08:20:30;;;;;;;3.50;0.80;;;;;;;19.20;50.01;100530.98;106296;1271;25316;-75
2022/07/07 08:22:56;;;;;;;1.30;0.60;;;;;;;19.18;49.57;100531.62;106327;1271;25312;-76
2022/07/07 08:25:22;;;;;;;0.90;0.60;;;;;;;19.13;49.64;100531.63;105945;1277;22546;-77
2022/07/07 08:27:49;;;;;;;1.30;0.70;;;;;;;19.18;50.22;100533.23;106056;1277;22571;-74
2022/07/07 08:30:15;;;;;;;1.60;0.90;;;;;;;19.24;50.09;100533.34;105908;1276;24893;-76
2022/07/07 08:32:45;;;;;;;2.20;0.50;;;;;;;19.25;49.93;100530.94;105867;1277;22545;-77
2022/07/07 08:35:13;;;;;;;2.30;0.80;;;;;;;19.21;49.38;100537.52;105873;1277;22841;-75
2022/07/07 08:37:39;;;;;;;0.60;0.50;;;;;;;19.12;49.38;100535.43;106023;1276;25341;-76
2022/07/07 08:40:06;;;;;;;1.80;0.80;;;;;;;19.15;49.48;100530.98;106015;1277;24482;-86
2022/07/07 08:42:39;;;;;;;1.90;0.60;;;;;;;19.22;49.43;100527.52;105960;1277;25333;-76
2022/07/07 08:45:06;;;;;;;3.00;0.50;;;;;;;19.31;49.35;100521.41;106167;1271;24305;-78
2022/07/07 08:47:32;;;;;;;1.20;0.70;;;;;;;19.43;49.24;100525.52;106125;1271;22577;-76
2022/07/07 08:49:59;;;;;;;2.20;0.70;;;;;;;19.58;48.86;100530.75;106148;1271;24295;-76
2022/07/07 08:52:27;;;;;;;2.70;0.80;;;;;;;19.59;48.29;100525.89;106100;1271;25285;-78
2022/07/07 08:54:55;;;;;;;0.60;0.50;;;;;;;19.54;48.45;100525.55;106145;1274;25261;-76
2022/07/07 08:57:21;;;;;;;3.90;1.10;;;;;;;19.66;48.57;100528.61;106130;1274;24231;-76
2022/07/07 08:59:47;;;;;;;1.20;0.60;;;;;;;19.72;48.19;100525.31;106019;1271;22696;-78
2022/07/07 09:02:13;;;;;;;0.80;0.50;;;;;;;19.72;47.90;100529.61;106054;1271;24234;-76
2022/07/07 09:04:40;;;;;;;1.60;0.70;;;;;;;19.72;47.90;100532.85;106123;1273;22695;-77
2022/07/07 09:07:07;;;;;;;0.50;0.50;;;;;;;19.71;47.58;100527.16;106088;1273;24411;-78
2022/07/07 09:09:46;;;;;;;1.30;0.60;;;;;;;19.75;47.71;100530.02;106232;1271;22560;-76
2022/07/07 09:12:15;;;;;;;4.90;0.80;;;;;;;19.85;47.46;100532.59;106378;1271;22571;-76
2022/07/07 09:14:51;;;;;;;4.20;0.70;;;;;;;19.98;47.42;100530.76;106338;1271;25269;-75
2022/07/07 09:17:32;;;;;;;1.90;0.50;;;;;;;20.16;47.72;100527.80;106581;1271;25569;-76
2022/07/07 09:20:03;;;;;;;2.40;0.70;;;;;;;20.35;47.61;100527.46;106583;1271;22547;-76
2022/07/07 09:22:53;;;;;;;1.00;0.60;;;;;;;20.41;46.83;100526.42;106841;1271;22618;-76
2022/07/07 09:25:28;;;;;;;3.80;0.80;;;;;;;20.52;46.74;100520.74;107117;1271;25386;-76
2022/07/07 09:27:59;;;;;;;4.20;1.00;;;;;;;20.56;45.60;100517.70;106818;1274;25328;-75
2022/07/07 09:30:37;;;;;;;2.20;0.50;;;;;;;20.61;45.06;100518.91;107067;1272;23162;-76
2022/07/07 09:33:07;;;;;;;1.60;0.60;;;;;;;20.64;44.69;100517.30;106812;1271;22729;-76
2022/07/07 09:38:23;;;;;;;1.40;0.50;;;;;;;20.49;45.35;100516.93;106927;1271;22544;-76
2022/07/07 09:40:59;;;;;;;2.40;0.60;;;;;;;20.50;45.54;100523.90;106756;1271;25949;-75
2022/07/07 09:43:30;;;;;;;1.90;0.60;;;;;;;20.54;45.22;100521.73;106549;1271;25285;-76
2022/07/07 09:46:07;;;;;;;1.40;0.40;;;;;;;20.50;44.46;100526.02;106864;1271;23988;-75
2022/07/07 09:48:35;;;;;;;2.10;0.70;;;;;;;20.42;44.56;100522.83;106672;1271;25395;-76
2022/07/07 09:51:17;;;;;;;0.60;0.50;;;;;;;20.41;44.37;100522.16;106382;1271;24355;-76
2022/07/07 09:53:58;;;;;;;1.00;0.40;;;;;;;20.35;43.93;100521.05;106390;1271;26999;-78
2022/07/07 09:56:32;;;;;;;3.80;0.80;;;;;;;20.37;44.71;100519.33;106213;1271;22553;-78
2022/07/07 09:58:59;;;;;;;2.50;0.50;;;;;;;20.45;44.70;100521.25;106264;1271;22570;-79
2022/07/07 10:01:30;;;;;;;0.80;0.70;;;;;;;20.38;44.51;100524.64;106380;1271;25357;-77
2022/07/07 10:03:59;;;;;;;1.50;0.70;;;;;;;20.41;44.98;100515.54;106235;1271;22701;-77
2022/07/07 10:06:27;;;;;;;2.00;0.60;;;;;;;20.58;45.23;100517.06;106088;1272;22794;-77
2022/07/07 10:09:01;;;;;;;3.50;0.70;;;;;;;20.80;44.77;100517.42;106169;1271;25528;-77
2022/07/07 10:11:42;;;;;;;1.60;0.50;;;;;;;21.03;43.10;100515.40;106272;1271;26622;-76
2022/07/07 10:14:33;;;;;;;2.70;0.50;;;;;;;21.35;42.10;100515.02;106258;1271;24217;-79
2022/07/07 10:17:01;;;;;;;2.80;0.60;;;;;;;21.30;41.46;100512.41;106259;1271;23060;-77
2022/07/07 10:19:27;;;;;;;2.60;0.70;;;;;;;21.22;41.88;100514.64;106071;1271;24280;-76
2022/07/07 10:21:56;;;;;;;0.60;0.40;;;;;;;21.50;41.59;100507.99;105936;1271;22551;-77
2022/07/07 10:24:25;;;;;;;1.90;0.50;;;;;;;21.86;42.03;100509.87;106266;1271;25368;-76
2022/07/07 10:26:55;;;;;;;3.00;0.60;;;;;;;22.24;40.89;100511.92;106223;1271;22558;-77
2022/07/07 10:29:49;;;;;;;1.70;0.60;;;;;;;22.30;40.70;100505.65;106464;1271;23283;-74
2022/07/07 10:32:18;;;;;;;1.00;0.70;;;;;;;22.15;40.07;100504.12;106134;1273;25269;-82
2022/07/07 10:34:50;;;;;;;1.60;0.70;;;;;;;21.97;39.86;100501.21;106200;1272;24119;-75
2022/07/07 10:37:17;;;;;;;2.10;0.60;;;;;;;21.85;39.76;100500.95;106232;1271;22606;-76
2022/07/07 10:39:46;;;;;;;2.60;0.50;;;;;;;21.68;40.04;100505.95;106212;1272;25415;-75
2022/07/07 10:42:21;;;;;;;3.10;0.60;;;;;;;21.49;40.66;100499.09;106163;1272;22731;-76
2022/07/07 10:44:51;;;;;;;1.50;0.60;;;;;;;21.40;41.01;100502.58;106288;1271;22530;-76
2022/07/07 10:47:17;;;;;;;1.00;0.70;;;;;;;21.28;41.30;100504.83;106247;1271;22743;-76
2022/07/07 10:49:46;;;;;;;1.60;0.50;;;;;;;21.19;41.77;100503.16;106191;1271;22708;-75
2022/07/07 10:52:25;;;;;;;1.20;0.40;;;;;;;21.14;41.17;100500.69;106160;1273;25264;-79
2022/07/07 10:55:02;;;;;;;1.50;1.00;;;;;;;21.06;41.01;100500.74;106095;1273;25274;-76
2022/07/07 10:57:39;;;;;;;2.40;0.50;;;;;;;21.02;41.69;100497.38;106302;1273;25467;-77
2022/07/07 11:00:35;;;;;;;2.10;0.80;;;;;;;21.17;41.63;100495.73;106290;1273;22548;-75
2022/07/07 11:03:10;;;;;;;2.20;0.80;;;;;;;21.29;41.78;100493.47;106028;1273;25510;-78
2022/07/07 11:05:42;;;;;;;5.70;0.70;;;;;;;21.41;41.45;100490.18;106198;1273;22632;-78
2022/07/07 11:08:10;;;;;;;1.50;0.60;;;;;;;21.59;41.06;100485.83;106328;1273;22642;-74
2022/07/07 11:10:57;;;;;;;4.00;0.40;;;;;;;21.92;40.21;100483.73;106241;1273;22654;-76
2022/07/07 11:13:30;;;;;;;2.60;0.70;;;;;;;22.25;39.93;100484.58;105817;1279;25274;-77
2022/07/07 11:16:06;;;;;;;1.10;0.60;;;;;;;22.65;39.13;100485.17;105788;1279;22571;-81
2022/07/07 11:18:35;;;;;;;;;;;;;;;22.93;38.11;100482.14;105769;1279;25559;-76
2022/07/07 11:21:04;;;;;;;0.70;0.60;;;;;;;22.94;37.09;100472.91;105666;1279;25394;-75
2022/07/07 11:23:47;;;;;;;3.70;0.80;;;;;;;22.89;38.00;100477.89;105811;1278;25401;-76
2022/07/07 11:26:16;;;;;;;1.10;0.70;;;;;;;22.83;37.75;100476.82;105801;1279;23608;-79
2022/07/07 11:28:49;;;;;;;2.40;0.80;;;;;;;22.60;37.19;100484.56;105799;1279;22715;-72
2022/07/07 11:31:16;;;;;;;1.50;0.70;;;;;;;22.35;37.17;100483.50;105816;1279;26665;-77